AAL1234 KBNA-KLAN
Flight info
| Callsign | AAL1234 |
|---|---|
| Flight time | 1h 16m |
| Altitude | 39000 |
| Route | KRSTA3 OLSIE IIU BONNT VIO |
| Aircraft | A20N/M-SDE2E3FGHIRWXY/LB1 |
Departure
| Time | 2026-04-16 04:04 |
|---|---|
| Airport | Nashville International Airport (KBNA) |
Arrival
| Time | 2026-04-16 05:21 |
|---|---|
| Airport | Capital Region International Airport (KLAN) |
| Time | Latitude | Longitude | Altitude | Speed | Heading |
|---|---|---|---|---|---|
| 2026-04-16 03:29 | 36.12741 | -86.67180 | 572 ft | 0 kts | 206° |
| 2026-04-16 03:53 | 36.12745 | -86.67178 | 575 ft | 3 kts | 188° |
| 2026-04-16 03:54 | 36.12759 | -86.67182 | 574 ft | 1 kts | 132° |
| 2026-04-16 03:57 | 36.12741 | -86.67169 | 575 ft | 6 kts | 154° |
| 2026-04-16 03:58 | 36.12696 | -86.67158 | 573 ft | 7 kts | 181° |
| 2026-04-16 03:58 | 36.12672 | -86.67166 | 572 ft | 0 kts | 204° |
| 2026-04-16 03:59 | 36.12663 | -86.67170 | 571 ft | 6 kts | 200° |
| 2026-04-16 03:59 | 36.12622 | -86.67182 | 577 ft | 6 kts | 185° |
| 2026-04-16 03:59 | 36.12581 | -86.67137 | 570 ft | 22 kts | 135° |
| 2026-04-16 04:00 | 36.12465 | -86.66994 | 567 ft | 23 kts | 157° |
| 2026-04-16 04:00 | 36.12399 | -86.66996 | 569 ft | 0 kts | 172° |
| 2026-04-16 04:01 | 36.12397 | -86.66995 | 570 ft | 5 kts | 163° |
| 2026-04-16 04:01 | 36.12324 | -86.66914 | 564 ft | 21 kts | 126° |
| 2026-04-16 04:01 | 36.12238 | -86.66663 | 570 ft | 28 kts | 108° |
| 2026-04-16 04:01 | 36.12281 | -86.66506 | 582 ft | 25 kts | 20° |
| 2026-04-16 04:02 | 36.12519 | -86.66409 | 581 ft | 37 kts | 17° |
| 2026-04-16 04:02 | 36.12761 | -86.66314 | 574 ft | 37 kts | 19° |
| 2026-04-16 04:02 | 36.12997 | -86.66211 | 576 ft | 24 kts | 35° |
| 2026-04-16 04:02 | 36.12993 | -86.66084 | 569 ft | 12 kts | 162° |
| 2026-04-16 04:03 | 36.12977 | -86.66085 | 570 ft | 0 kts | 194° |
| 2026-04-16 04:03 | 36.12701 | -86.66190 | 579 ft | 80 kts | 198° |
| 2026-04-16 04:03 | 36.11920 | -86.66507 | 629 ft | 151 kts | 198° |
| 2026-04-16 04:04 | 36.10830 | -86.66954 | 1093 ft | 175 kts | 200° |
| 2026-04-16 04:04 | 36.09691 | -86.67532 | 1829 ft | 169 kts | 218° |
| 2026-04-16 04:04 | 36.09116 | -86.68650 | 2847 ft | 150 kts | 244° |
| 2026-04-16 04:04 | 36.08768 | -86.69900 | 3431 ft | 158 kts | 248° |
| 2026-04-16 04:05 | 36.08408 | -86.71212 | 4031 ft | 164 kts | 246° |
| 2026-04-16 04:05 | 36.08008 | -86.72546 | 4674 ft | 167 kts | 245° |
| 2026-04-16 04:05 | 36.07576 | -86.73887 | 5303 ft | 170 kts | 244° |
| 2026-04-16 04:05 | 36.07121 | -86.75255 | 5898 ft | 175 kts | 245° |
| 2026-04-16 04:06 | 36.06790 | -86.76704 | 6476 ft | 182 kts | 256° |
| 2026-04-16 04:06 | 36.06800 | -86.78295 | 6921 ft | 189 kts | 273° |
| 2026-04-16 04:06 | 36.07076 | -86.79890 | 7095 ft | 190 kts | 278° |
| 2026-04-16 04:06 | 36.07411 | -86.81473 | 7099 ft | 192 kts | 279° |
| 2026-04-16 04:07 | 36.07770 | -86.83075 | 7066 ft | 194 kts | 282° |
| 2026-04-16 04:07 | 36.09280 | -86.85913 | 7811 ft | 206 kts | 315° |
| 2026-04-16 04:07 | 36.10539 | -86.86797 | 8377 ft | 212 kts | 335° |
| 2026-04-16 04:08 | 36.11996 | -86.87104 | 8895 ft | 220 kts | 357° |
| 2026-04-16 04:08 | 36.13528 | -86.86851 | 9399 ft | 224 kts | 9° |
| 2026-04-16 04:08 | 36.15052 | -86.86408 | 9921 ft | 226 kts | 11° |
| 2026-04-16 04:08 | 36.16590 | -86.85936 | 10363 ft | 228 kts | 11° |
| 2026-04-16 04:09 | 36.18138 | -86.85466 | 10808 ft | 230 kts | 11° |
| 2026-04-16 04:09 | 36.19698 | -86.85000 | 11258 ft | 231 kts | 10° |
| 2026-04-16 04:09 | 36.21270 | -86.84536 | 11702 ft | 233 kts | 10° |
| 2026-04-16 04:09 | 36.22856 | -86.84072 | 12119 ft | 235 kts | 9° |
| 2026-04-16 04:10 | 36.24458 | -86.83604 | 12528 ft | 237 kts | 9° |
| 2026-04-16 04:10 | 36.26063 | -86.83135 | 12947 ft | 237 kts | 9° |
| 2026-04-16 04:10 | 36.27680 | -86.82664 | 13370 ft | 239 kts | 9° |
| 2026-04-16 04:10 | 36.29300 | -86.82191 | 13774 ft | 240 kts | 8° |
| 2026-04-16 04:11 | 36.30930 | -86.81716 | 14138 ft | 241 kts | 8° |
| 2026-04-16 04:11 | 36.32559 | -86.81133 | 14472 ft | 246 kts | 16° |
| 2026-04-16 04:11 | 36.34106 | -86.80176 | 14808 ft | 251 kts | 30° |
| 2026-04-16 04:11 | 36.35466 | -86.78790 | 15142 ft | 255 kts | 44° |
| 2026-04-16 04:12 | 36.36684 | -86.77179 | 15480 ft | 257 kts | 47° |
| 2026-04-16 04:12 | 36.37862 | -86.75534 | 15813 ft | 259 kts | 48° |
| 2026-04-16 04:12 | 36.39062 | -86.73850 | 16131 ft | 262 kts | 47° |
| 2026-04-16 04:12 | 36.40274 | -86.72156 | 16480 ft | 263 kts | 47° |
| 2026-04-16 04:13 | 36.41496 | -86.70452 | 16803 ft | 265 kts | 47° |
| 2026-04-16 04:13 | 36.42731 | -86.68735 | 17112 ft | 268 kts | 47° |
| 2026-04-16 04:13 | 36.43975 | -86.67005 | 17438 ft | 269 kts | 47° |
| 2026-04-16 04:13 | 36.45229 | -86.65262 | 17734 ft | 272 kts | 47° |
| 2026-04-16 04:14 | 36.46493 | -86.63506 | 18069 ft | 273 kts | 47° |
| 2026-04-16 04:14 | 36.47765 | -86.61736 | 18379 ft | 275 kts | 47° |
| 2026-04-16 04:14 | 36.49043 | -86.59959 | 18635 ft | 277 kts | 47° |
| 2026-04-16 04:14 | 36.50335 | -86.58161 | 18885 ft | 279 kts | 47° |
| 2026-04-16 04:15 | 36.51614 | -86.56380 | 19135 ft | 280 kts | 47° |
| 2026-04-16 04:15 | 36.52913 | -86.54570 | 19393 ft | 281 kts | 47° |
| 2026-04-16 04:15 | 36.54217 | -86.52751 | 19628 ft | 283 kts | 47° |
| 2026-04-16 04:15 | 36.55532 | -86.50919 | 19874 ft | 284 kts | 47° |
| 2026-04-16 04:16 | 36.56907 | -86.49146 | 20102 ft | 285 kts | 41° |
| 2026-04-16 04:16 | 36.58447 | -86.47598 | 20355 ft | 285 kts | 31° |
| 2026-04-16 04:16 | 36.60152 | -86.46358 | 20587 ft | 283 kts | 21° |
| 2026-04-16 04:16 | 36.61951 | -86.45363 | 20835 ft | 283 kts | 17° |
| 2026-04-16 04:17 | 36.63775 | -86.44429 | 21074 ft | 284 kts | 17° |
| 2026-04-16 04:17 | 36.65610 | -86.43499 | 21319 ft | 285 kts | 17° |
| 2026-04-16 04:17 | 36.67455 | -86.42562 | 21539 ft | 287 kts | 17° |
| 2026-04-16 04:17 | 36.69307 | -86.41617 | 21769 ft | 288 kts | 17° |
| 2026-04-16 04:18 | 36.71171 | -86.40664 | 21997 ft | 290 kts | 16° |
| 2026-04-16 04:18 | 36.73003 | -86.39657 | 22208 ft | 293 kts | 20° |
| 2026-04-16 04:18 | 36.74873 | -86.38494 | 22257 ft | 310 kts | 22° |
| 2026-04-16 04:18 | 36.76857 | -86.37224 | 22329 ft | 330 kts | 22° |
| 2026-04-16 04:19 | 36.78954 | -86.35870 | 22515 ft | 348 kts | 23° |
| 2026-04-16 04:19 | 36.81156 | -86.34445 | 22728 ft | 365 kts | 23° |
| 2026-04-16 04:19 | 36.83460 | -86.32952 | 22955 ft | 381 kts | 23° |
| 2026-04-16 04:19 | 36.85858 | -86.31397 | 23183 ft | 396 kts | 23° |
| 2026-04-16 04:20 | 36.88349 | -86.29782 | 23410 ft | 411 kts | 24° |
| 2026-04-16 04:20 | 36.90932 | -86.28107 | 23629 ft | 425 kts | 24° |
| 2026-04-16 04:20 | 36.93600 | -86.26374 | 23838 ft | 439 kts | 23° |
| 2026-04-16 04:20 | 36.96350 | -86.24587 | 24017 ft | 452 kts | 24° |
| 2026-04-16 04:21 | 36.99172 | -86.22752 | 24248 ft | 462 kts | 24° |
| 2026-04-16 04:21 | 37.02043 | -86.20882 | 24608 ft | 467 kts | 24° |
| 2026-04-16 04:21 | 37.04945 | -86.18990 | 25021 ft | 472 kts | 24° |
| 2026-04-16 04:21 | 37.07864 | -86.17086 | 25460 ft | 474 kts | 24° |
| 2026-04-16 04:22 | 37.10803 | -86.15168 | 25913 ft | 477 kts | 24° |
| 2026-04-16 04:22 | 37.13760 | -86.13237 | 26316 ft | 480 kts | 24° |
| 2026-04-16 04:22 | 37.16734 | -86.11294 | 26733 ft | 484 kts | 24° |
| 2026-04-16 04:22 | 37.19727 | -86.09336 | 27120 ft | 488 kts | 24° |
| 2026-04-16 04:23 | 37.22798 | -86.07529 | 27471 ft | 487 kts | 15° |
| 2026-04-16 04:23 | 37.26056 | -86.06471 | 27852 ft | 482 kts | 5° |
| 2026-04-16 04:23 | 37.29363 | -86.05749 | 28222 ft | 483 kts | 3° |
| 2026-04-16 04:23 | 37.32693 | -86.05080 | 28590 ft | 486 kts | 3° |
| 2026-04-16 04:24 | 37.36046 | -86.04410 | 28952 ft | 489 kts | 3° |
| 2026-04-16 04:24 | 37.39415 | -86.03730 | 29313 ft | 492 kts | 3° |
| 2026-04-16 04:24 | 37.42768 | -86.03048 | 29668 ft | 495 kts | 3° |
| 2026-04-16 04:24 | 37.46187 | -86.02350 | 29986 ft | 499 kts | 3° |
| 2026-04-16 04:25 | 37.49621 | -86.01645 | 30303 ft | 501 kts | 3° |
| 2026-04-16 04:25 | 37.53072 | -86.00935 | 30629 ft | 503 kts | 3° |
| 2026-04-16 04:25 | 37.56525 | -86.00222 | 31082 ft | 501 kts | 3° |
| 2026-04-16 04:25 | 37.59965 | -85.99510 | 31556 ft | 499 kts | 2° |
| 2026-04-16 04:26 | 37.63402 | -85.98799 | 31991 ft | 498 kts | 2° |
| 2026-04-16 04:26 | 37.66817 | -85.98093 | 32414 ft | 497 kts | 2° |
| 2026-04-16 04:26 | 37.70232 | -85.97386 | 32805 ft | 497 kts | 2° |
| 2026-04-16 04:26 | 37.73640 | -85.96680 | 33211 ft | 496 kts | 2° |
| 2026-04-16 04:27 | 37.77006 | -85.95982 | 33609 ft | 494 kts | 2° |
| 2026-04-16 04:27 | 37.80401 | -85.95278 | 33972 ft | 493 kts | 2° |
| 2026-04-16 04:27 | 37.83787 | -85.94574 | 34315 ft | 492 kts | 2° |
| 2026-04-16 04:27 | 37.87153 | -85.93873 | 34682 ft | 490 kts | 2° |
| 2026-04-16 04:28 | 37.90511 | -85.93174 | 34958 ft | 490 kts | 2° |
| 2026-04-16 04:28 | 37.93877 | -85.92474 | 34995 ft | 489 kts | 2° |
| 2026-04-16 04:28 | 38.00577 | -85.91076 | 35002 ft | 487 kts | 2° |
| 2026-04-16 04:29 | 38.07265 | -85.89680 | 34999 ft | 487 kts | 2° |
| 2026-04-16 04:29 | 38.13924 | -85.88287 | 35006 ft | 487 kts | 2° |
| 2026-04-16 04:30 | 38.20616 | -85.86884 | 34998 ft | 488 kts | 2° |
| 2026-04-16 04:30 | 38.27322 | -85.85475 | 34988 ft | 488 kts | 2° |
| 2026-04-16 04:31 | 38.34028 | -85.84063 | 34991 ft | 488 kts | 2° |
| 2026-04-16 04:31 | 38.40730 | -85.82649 | 34989 ft | 488 kts | 2° |
| 2026-04-16 04:32 | 38.47438 | -85.81231 | 34989 ft | 488 kts | 2° |
| 2026-04-16 04:32 | 38.54141 | -85.79812 | 34985 ft | 488 kts | 2° |
| 2026-04-16 04:33 | 38.60848 | -85.78390 | 34990 ft | 489 kts | 2° |
| 2026-04-16 04:33 | 38.67528 | -85.76972 | 34982 ft | 490 kts | 2° |
| 2026-04-16 04:34 | 38.74273 | -85.75535 | 34985 ft | 491 kts | 2° |
| 2026-04-16 04:34 | 38.81019 | -85.74096 | 34984 ft | 491 kts | 2° |
| 2026-04-16 04:35 | 38.87756 | -85.72656 | 34871 ft | 490 kts | 2° |
| 2026-04-16 04:35 | 38.91123 | -85.71935 | 34634 ft | 491 kts | 2° |
| 2026-04-16 04:35 | 38.94492 | -85.71214 | 34397 ft | 492 kts | 2° |
| 2026-04-16 04:36 | 38.97875 | -85.70489 | 34152 ft | 493 kts | 2° |
| 2026-04-16 04:36 | 39.01223 | -85.69771 | 33899 ft | 494 kts | 2° |
| 2026-04-16 04:36 | 39.04623 | -85.69040 | 33666 ft | 495 kts | 2° |
| 2026-04-16 04:36 | 39.08029 | -85.68308 | 33400 ft | 497 kts | 2° |
| 2026-04-16 04:37 | 39.11445 | -85.67572 | 33140 ft | 498 kts | 2° |
| 2026-04-16 04:37 | 39.14862 | -85.66836 | 32871 ft | 498 kts | 2° |
| 2026-04-16 04:37 | 39.18289 | -85.66096 | 32610 ft | 498 kts | 2° |
| 2026-04-16 04:37 | 39.21707 | -85.65357 | 32353 ft | 499 kts | 2° |
| 2026-04-16 04:38 | 39.25137 | -85.64615 | 32097 ft | 499 kts | 2° |
| 2026-04-16 04:38 | 39.28558 | -85.63875 | 31870 ft | 499 kts | 2° |
| 2026-04-16 04:38 | 39.31928 | -85.63145 | 31611 ft | 498 kts | 2° |
| 2026-04-16 04:38 | 39.35361 | -85.62401 | 31364 ft | 498 kts | 2° |
| 2026-04-16 04:39 | 39.38774 | -85.61660 | 31129 ft | 497 kts | 2° |
| 2026-04-16 04:39 | 39.42177 | -85.60920 | 30888 ft | 495 kts | 2° |
| 2026-04-16 04:39 | 39.45573 | -85.60181 | 30649 ft | 492 kts | 2° |
| 2026-04-16 04:39 | 39.48945 | -85.59446 | 30414 ft | 490 kts | 2° |
| 2026-04-16 04:40 | 39.52310 | -85.58713 | 30208 ft | 488 kts | 2° |
| 2026-04-16 04:40 | 39.55607 | -85.57994 | 29994 ft | 486 kts | 2° |
| 2026-04-16 04:40 | 39.62270 | -85.56540 | 29935 ft | 485 kts | 2° |
| 2026-04-16 04:41 | 39.68804 | -85.55102 | 29933 ft | 465 kts | 1° |
| 2026-04-16 04:41 | 39.74025 | -85.53951 | 29953 ft | 449 kts | 1° |
| 2026-04-16 04:42 | 39.80051 | -85.52625 | 29955 ft | 430 kts | 0° |
| 2026-04-16 04:42 | 39.86764 | -85.51148 | 29961 ft | 411 kts | 0° |
| 2026-04-16 04:43 | 39.91417 | -85.50123 | 29961 ft | 398 kts | 360° |
| 2026-04-16 04:43 | 39.96740 | -85.48949 | 29967 ft | 384 kts | 359° |
| 2026-04-16 04:44 | 40.01911 | -85.47806 | 29949 ft | 370 kts | 359° |
| 2026-04-16 04:44 | 40.06916 | -85.46681 | 29686 ft | 364 kts | 359° |
| 2026-04-16 04:45 | 40.09415 | -85.46124 | 29468 ft | 364 kts | 359° |
| 2026-04-16 04:45 | 40.11910 | -85.45574 | 29270 ft | 363 kts | 359° |
| 2026-04-16 04:45 | 40.14402 | -85.45028 | 29081 ft | 362 kts | 359° |
| 2026-04-16 04:45 | 40.16877 | -85.44490 | 28919 ft | 360 kts | 359° |
| 2026-04-16 04:46 | 40.19317 | -85.43963 | 28755 ft | 359 kts | 359° |
| 2026-04-16 04:46 | 40.21777 | -85.43436 | 28592 ft | 357 kts | 359° |
| 2026-04-16 04:46 | 40.24233 | -85.42913 | 28429 ft | 356 kts | 359° |
| 2026-04-16 04:46 | 40.26680 | -85.42393 | 28248 ft | 354 kts | 359° |
| 2026-04-16 04:47 | 40.29109 | -85.41876 | 28105 ft | 353 kts | 359° |
| 2026-04-16 04:47 | 40.31530 | -85.41362 | 27942 ft | 352 kts | 359° |
| 2026-04-16 04:47 | 40.33913 | -85.40858 | 27788 ft | 350 kts | 359° |
| 2026-04-16 04:47 | 40.36319 | -85.40352 | 27632 ft | 349 kts | 359° |
| 2026-04-16 04:48 | 40.38713 | -85.39851 | 27490 ft | 348 kts | 359° |
| 2026-04-16 04:48 | 40.41103 | -85.39372 | 27333 ft | 347 kts | 0° |
| 2026-04-16 04:48 | 40.43485 | -85.38782 | 27174 ft | 348 kts | 2° |
| 2026-04-16 04:48 | 40.45856 | -85.38170 | 27027 ft | 346 kts | 1° |
| 2026-04-16 04:49 | 40.48216 | -85.37583 | 26937 ft | 342 kts | 1° |
| 2026-04-16 04:49 | 40.50518 | -85.37030 | 26923 ft | 336 kts | 0° |
| 2026-04-16 04:49 | 40.52794 | -85.36497 | 26925 ft | 329 kts | 0° |
| 2026-04-16 04:49 | 40.55024 | -85.35982 | 26927 ft | 322 kts | 360° |
| 2026-04-16 04:50 | 40.57205 | -85.35483 | 26925 ft | 314 kts | 359° |
| 2026-04-16 04:50 | 40.59339 | -85.34998 | 26922 ft | 307 kts | 359° |
| 2026-04-16 04:50 | 40.61413 | -85.34527 | 26917 ft | 298 kts | 359° |
| 2026-04-16 04:50 | 40.63429 | -85.34070 | 26913 ft | 289 kts | 358° |
| 2026-04-16 04:51 | 40.65378 | -85.33627 | 26907 ft | 278 kts | 358° |
| 2026-04-16 04:51 | 40.67263 | -85.33200 | 26901 ft | 274 kts | 357° |
| 2026-04-16 04:51 | 40.69163 | -85.32784 | 26323 ft | 287 kts | 358° |
| 2026-04-16 04:51 | 40.71247 | -85.32386 | 25150 ft | 324 kts | 358° |
| 2026-04-16 04:52 | 40.73600 | -85.31994 | 24020 ft | 357 kts | 359° |
| 2026-04-16 04:52 | 40.76162 | -85.31622 | 22956 ft | 380 kts | 358° |
| 2026-04-16 04:52 | 40.78734 | -85.31268 | 23070 ft | 365 kts | 358° |
| 2026-04-16 04:52 | 40.81245 | -85.30911 | 22763 ft | 363 kts | 358° |
| 2026-04-16 04:53 | 40.83781 | -85.30529 | 22140 ft | 373 kts | 358° |
| 2026-04-16 04:53 | 40.86416 | -85.30107 | 21197 ft | 389 kts | 358° |
| 2026-04-16 04:53 | 40.89115 | -85.29692 | 20800 ft | 388 kts | 358° |
| 2026-04-16 04:53 | 40.91750 | -85.29280 | 20830 ft | 373 kts | 358° |
| 2026-04-16 04:54 | 40.94286 | -85.28865 | 21017 ft | 362 kts | 358° |
| 2026-04-16 04:54 | 40.96745 | -85.28444 | 21416 ft | 350 kts | 358° |
| 2026-04-16 04:54 | 40.99118 | -85.28014 | 21846 ft | 337 kts | 358° |
| 2026-04-16 04:54 | 41.01409 | -85.27577 | 22145 ft | 330 kts | 358° |
| 2026-04-16 04:55 | 41.03683 | -85.27132 | 22302 ft | 329 kts | 358° |
| 2026-04-16 04:55 | 41.05918 | -85.26683 | 22398 ft | 329 kts | 358° |
| 2026-04-16 04:55 | 41.08183 | -85.26222 | 22497 ft | 329 kts | 358° |
| 2026-04-16 04:55 | 41.10448 | -85.25759 | 22569 ft | 330 kts | 358° |
| 2026-04-16 04:56 | 41.12720 | -85.25295 | 22637 ft | 330 kts | 358° |
| 2026-04-16 04:56 | 41.15000 | -85.24828 | 22706 ft | 331 kts | 358° |
| 2026-04-16 04:56 | 41.17278 | -85.24361 | 22776 ft | 331 kts | 358° |
| 2026-04-16 04:56 | 41.19559 | -85.23894 | 22838 ft | 332 kts | 358° |
| 2026-04-16 04:57 | 41.21879 | -85.23430 | 22589 ft | 344 kts | 358° |
| 2026-04-16 04:57 | 41.24292 | -85.22972 | 22254 ft | 357 kts | 358° |
| 2026-04-16 04:57 | 41.26799 | -85.22512 | 21913 ft | 369 kts | 358° |
| 2026-04-16 04:57 | 41.29386 | -85.22047 | 21525 ft | 381 kts | 358° |
| 2026-04-16 04:58 | 41.32031 | -85.21600 | 21085 ft | 393 kts | 358° |
| 2026-04-16 04:58 | 41.34787 | -85.21163 | 20576 ft | 405 kts | 358° |
| 2026-04-16 04:58 | 41.37626 | -85.20742 | 20013 ft | 416 kts | 358° |
| 2026-04-16 04:58 | 41.40554 | -85.20338 | 19435 ft | 427 kts | 358° |
| 2026-04-16 04:59 | 41.43542 | -85.19954 | 18915 ft | 435 kts | 358° |
| 2026-04-16 04:59 | 41.46553 | -85.19586 | 18723 ft | 432 kts | 358° |
| 2026-04-16 04:59 | 41.49502 | -85.19221 | 18854 ft | 420 kts | 358° |
| 2026-04-16 04:59 | 41.52380 | -85.18851 | 18892 ft | 410 kts | 358° |
| 2026-04-16 05:00 | 41.55172 | -85.18477 | 18895 ft | 395 kts | 358° |
| 2026-04-16 05:00 | 41.57856 | -85.18097 | 18901 ft | 380 kts | 358° |
| 2026-04-16 05:00 | 41.60442 | -85.17713 | 18896 ft | 368 kts | 358° |
| 2026-04-16 05:00 | 41.62947 | -85.17326 | 18895 ft | 356 kts | 358° |
| 2026-04-16 05:01 | 41.65346 | -85.16942 | 18898 ft | 345 kts | 358° |
| 2026-04-16 05:01 | 41.67700 | -85.16554 | 18906 ft | 336 kts | 358° |
| 2026-04-16 05:01 | 41.69996 | -85.16158 | 18893 ft | 327 kts | 358° |
| 2026-04-16 05:01 | 41.72224 | -85.15758 | 18890 ft | 318 kts | 358° |
| 2026-04-16 05:02 | 41.74394 | -85.15357 | 18700 ft | 315 kts | 358° |
| 2026-04-16 05:02 | 41.76604 | -85.14960 | 18079 ft | 326 kts | 358° |
| 2026-04-16 05:02 | 41.78896 | -85.14572 | 17304 ft | 338 kts | 358° |
| 2026-04-16 05:02 | 41.81238 | -85.14213 | 16494 ft | 349 kts | 358° |
| 2026-04-16 05:03 | 41.83698 | -85.13877 | 15655 ft | 359 kts | 358° |
| 2026-04-16 05:03 | 41.86190 | -85.13572 | 15128 ft | 359 kts | 358° |
| 2026-04-16 05:03 | 41.88659 | -85.13285 | 14815 ft | 352 kts | 358° |
| 2026-04-16 05:04 | 41.93288 | -85.12706 | 14896 ft | 316 kts | 358° |
| 2026-04-16 05:04 | 41.95417 | -85.12408 | 14899 ft | 298 kts | 358° |
| 2026-04-16 05:04 | 41.97420 | -85.12104 | 14895 ft | 281 kts | 358° |
| 2026-04-16 05:04 | 41.99280 | -85.11799 | 14893 ft | 264 kts | 358° |
| 2026-04-16 05:05 | 42.01046 | -85.11486 | 14892 ft | 249 kts | 358° |
| 2026-04-16 05:05 | 42.02730 | -85.11171 | 14889 ft | 239 kts | 358° |
| 2026-04-16 05:05 | 42.04371 | -85.10854 | 14623 ft | 244 kts | 358° |
| 2026-04-16 05:05 | 42.06126 | -85.10549 | 14121 ft | 261 kts | 356° |
| 2026-04-16 05:06 | 42.07935 | -85.10472 | 13748 ft | 263 kts | 348° |
| 2026-04-16 05:06 | 42.09777 | -85.10644 | 13336 ft | 268 kts | 346° |
| 2026-04-16 05:06 | 42.11676 | -85.10859 | 12738 ft | 280 kts | 347° |
| 2026-04-16 05:06 | 42.13669 | -85.10904 | 12212 ft | 291 kts | 354° |
| 2026-04-16 05:07 | 42.15708 | -85.10827 | 11787 ft | 294 kts | 354° |
| 2026-04-16 05:07 | 42.17763 | -85.10735 | 11415 ft | 294 kts | 353° |
| 2026-04-16 05:07 | 42.19836 | -85.10825 | 10758 ft | 303 kts | 348° |
| 2026-04-16 05:07 | 42.21980 | -85.10973 | 10186 ft | 312 kts | 352° |
| 2026-04-16 05:08 | 42.24123 | -85.10994 | 9827 ft | 310 kts | 353° |
| 2026-04-16 05:08 | 42.26216 | -85.10980 | 9812 ft | 289 kts | 353° |
| 2026-04-16 05:08 | 42.28148 | -85.10937 | 9882 ft | 266 kts | 353° |
| 2026-04-16 05:08 | 42.29936 | -85.10869 | 9768 ft | 252 kts | 353° |
| 2026-04-16 05:09 | 42.31726 | -85.10790 | 9130 ft | 263 kts | 353° |
| 2026-04-16 05:09 | 42.33603 | -85.10715 | 8423 ft | 275 kts | 353° |
| 2026-04-16 05:09 | 42.35517 | -85.10651 | 7999 ft | 273 kts | 353° |
| 2026-04-16 05:09 | 42.37370 | -85.10571 | 7893 ft | 258 kts | 353° |
| 2026-04-16 05:10 | 42.39077 | -85.10477 | 7876 ft | 239 kts | 353° |
| 2026-04-16 05:10 | 42.40656 | -85.10358 | 7866 ft | 213 kts | 353° |
| 2026-04-16 05:10 | 42.42047 | -85.10204 | 7842 ft | 192 kts | 353° |
| 2026-04-16 05:10 | 42.43389 | -85.10037 | 7710 ft | 193 kts | 353° |
| 2026-04-16 05:11 | 42.44852 | -85.09891 | 6972 ft | 210 kts | 353° |
| 2026-04-16 05:11 | 42.46241 | -85.09697 | 7335 ft | 192 kts | 356° |
| 2026-04-16 05:11 | 42.47578 | -85.09365 | 7441 ft | 209 kts | 2° |
| 2026-04-16 05:11 | 42.49047 | -85.08911 | 7225 ft | 215 kts | 1° |
| 2026-04-16 05:12 | 42.50525 | -85.08513 | 6718 ft | 218 kts | 0° |
| 2026-04-16 05:12 | 42.51984 | -85.07866 | 6237 ft | 231 kts | 21° |
| 2026-04-16 05:12 | 42.53302 | -85.06594 | 5821 ft | 235 kts | 41° |
| 2026-04-16 05:12 | 42.54284 | -85.04815 | 5377 ft | 237 kts | 63° |
| 2026-04-16 05:13 | 42.55011 | -85.02815 | 4935 ft | 234 kts | 59° |
| 2026-04-16 05:13 | 42.56015 | -85.01254 | 4759 ft | 206 kts | 17° |
| 2026-04-16 05:13 | 42.57508 | -85.00858 | 4304 ft | 245 kts | 353° |
| 2026-04-16 05:13 | 42.59164 | -85.00722 | 4125 ft | 227 kts | 356° |
| 2026-04-16 05:14 | 42.60652 | -85.00494 | 4096 ft | 204 kts | 358° |
| 2026-04-16 05:14 | 42.61978 | -85.00175 | 4033 ft | 185 kts | 3° |
| 2026-04-16 05:14 | 42.63421 | -84.99591 | 3671 ft | 247 kts | 18° |
| 2026-04-16 05:14 | 42.64708 | -84.98224 | 3680 ft | 224 kts | 54° |
| 2026-04-16 05:15 | 42.65345 | -84.96431 | 3628 ft | 202 kts | 74° |
| 2026-04-16 05:15 | 42.65866 | -84.94629 | 3532 ft | 205 kts | 66° |
| 2026-04-16 05:15 | 42.66515 | -84.92904 | 3534 ft | 203 kts | 60° |
| 2026-04-16 05:15 | 42.67330 | -84.91396 | 3735 ft | 196 kts | 45° |
| 2026-04-16 05:16 | 42.68412 | -84.89978 | 3634 ft | 235 kts | 36° |
| 2026-04-16 05:16 | 42.69790 | -84.88489 | 3741 ft | 268 kts | 33° |
| 2026-04-16 05:16 | 42.71221 | -84.86952 | 4105 ft | 244 kts | 38° |
| 2026-04-16 05:16 | 42.72352 | -84.85450 | 4482 ft | 219 kts | 43° |
| 2026-04-16 05:17 | 42.73326 | -84.83834 | 4992 ft | 210 kts | 57° |
| 2026-04-16 05:17 | 42.73942 | -84.82088 | 5233 ft | 209 kts | 67° |
| 2026-04-16 05:17 | 42.74531 | -84.80274 | 5083 ft | 210 kts | 62° |
| 2026-04-16 05:17 | 42.75209 | -84.78569 | 4703 ft | 202 kts | 54° |
| 2026-04-16 05:18 | 42.75997 | -84.77005 | 4233 ft | 198 kts | 60° |
| 2026-04-16 05:18 | 42.76488 | -84.75348 | 3940 ft | 183 kts | 77° |
| 2026-04-16 05:18 | 42.76886 | -84.73760 | 3564 ft | 177 kts | 68° |
| 2026-04-16 05:18 | 42.77373 | -84.72105 | 3428 ft | 206 kts | 72° |
| 2026-04-16 05:19 | 42.77822 | -84.70280 | 3247 ft | 197 kts | 79° |
| 2026-04-16 05:19 | 42.77951 | -84.68494 | 2945 ft | 184 kts | 97° |
| 2026-04-16 05:19 | 42.77936 | -84.66779 | 2569 ft | 179 kts | 98° |
| 2026-04-16 05:19 | 42.77932 | -84.65062 | 2104 ft | 185 kts | 98° |
| 2026-04-16 05:20 | 42.77886 | -84.63308 | 1588 ft | 189 kts | 96° |
| 2026-04-16 05:20 | 42.77836 | -84.61540 | 1155 ft | 182 kts | 92° |
| 2026-04-16 05:20 | 42.77818 | -84.59880 | 880 ft | 168 kts | 94° |
| 2026-04-16 05:20 | 42.77803 | -84.58606 | 848 ft | 83 kts | 89° |
| 2026-04-16 05:21 | 42.77804 | -84.58202 | 855 ft | 6 kts | 90° |
| 2026-04-16 05:21 | 42.77805 | -84.58129 | 853 ft | 11 kts | 89° |
| 2026-04-16 05:21 | 42.77806 | -84.58021 | 855 ft | 15 kts | 89° |
| 2026-04-16 05:21 | 42.77804 | -84.57836 | 854 ft | 20 kts | 91° |
| 2026-04-16 05:22 | 42.77749 | -84.57700 | 853 ft | 15 kts | 172° |
| 2026-04-16 05:22 | 42.77730 | -84.57699 | 861 ft | 0 kts | 178° |
| 2026-04-16 05:22 | 42.77708 | -84.57700 | 864 ft | 8 kts | 187° |
| 2026-04-16 05:22 | 42.77679 | -84.57850 | 861 ft | 32 kts | 272° |
| 2026-04-16 05:23 | 42.77687 | -84.58154 | 858 ft | 30 kts | 270° |
| 2026-04-16 05:23 | 42.77687 | -84.58357 | 854 ft | 11 kts | 274° |
| 2026-04-16 05:23 | 42.77688 | -84.58469 | 849 ft | 14 kts | 271° |
| 2026-04-16 05:23 | 42.77666 | -84.58618 | 850 ft | 17 kts | 219° |
| 2026-04-16 05:24 | 42.77625 | -84.58739 | 851 ft | 16 kts | 269° |
| 2026-04-16 05:24 | 42.77621 | -84.58883 | 854 ft | 15 kts | 271° |
| 2026-04-16 05:24 | 42.77601 | -84.58951 | 860 ft | 5 kts | 211° |
| 2026-04-16 05:24 | 42.77582 | -84.58960 | 856 ft | 2 kts | 191° |
| 2026-04-16 05:25 | 42.77576 | -84.58962 | 854 ft | 0 kts | 187° |
| 2026-04-16 05:25 | 42.77573 | -84.58962 | 854 ft | 0 kts | 186° |
| 2026-04-16 05:25 | 42.77568 | -84.58962 | 856 ft | 0 kts | 179° |